Time;durP1;ratioP1;P1;durP2;ratioP2;P2;SDS_P1;SDS_P2;PMS_P1;PMS_P2;Temp;Humidity;BMP_temperature;BMP_pressure;BME280_temperature;BME280_humidity;BME280_pressure;Samples;Min_cycle;Max_cycle;Signal;HPM_P1;HPM_P2
2023/12/19 00:01:47;;;;;;;110.00;36.15;;;;;;;;;;5025027;28;20049;-62
2023/12/19 00:04:14;;;;;;;101.53;33.53;;;;;;;;;;5041598;28;20775;-63
2023/12/19 00:06:40;;;;;;;103.50;35.05;;;;;;;;;;5043495;28;20047;-62
2023/12/19 00:09:06;;;;;;;100.07;34.72;;;;;;;;;;5043048;28;20049;-62
2023/12/19 00:11:34;;;;;;;93.28;35.00;;;;;;;;;;5005624;28;20049;-63
2023/12/19 00:14:00;;;;;;;103.30;35.60;;;;;;;;;;5042099;28;20485;-62
2023/12/19 00:16:27;;;;;;;106.28;37.67;;;;;;;;;;5025047;28;20041;-62
2023/12/19 00:18:53;;;;;;;103.15;38.15;;;;;;;;;;5042933;28;20045;-62
2023/12/19 00:21:19;;;;;;;103.78;38.55;;;;;;;;;;5041747;28;21971;-63
2023/12/19 00:23:46;;;;;;;113.60;38.03;;;;;;;;;;5043452;28;20045;-63
2023/12/19 00:26:13;;;;;;;110.43;38.35;;;;;;;;;;5024536;28;20554;-63
2023/12/19 00:28:39;;;;;;;104.10;39.25;;;;;;;;;;5028484;28;20132;-62
2023/12/19 00:31:06;;;;;;;103.90;39.47;;;;;;;;;;5042645;28;20041;-63
2023/12/19 00:33:33;;;;;;;103.35;37.20;;;;;;;;;;5042478;28;20496;-62
2023/12/19 00:35:59;;;;;;;140.98;47.15;;;;;;;;;;5042740;28;20400;-63
2023/12/19 00:38:25;;;;;;;132.93;43.00;;;;;;;;;;5041383;28;20050;-62
2023/12/19 00:40:51;;;;;;;145.45;45.58;;;;;;;;;;5042457;28;20578;-62
2023/12/19 00:43:17;;;;;;;115.10;40.65;;;;;;;;;;5024541;28;20041;-62
2023/12/19 00:45:44;;;;;;;128.68;41.22;;;;;;;;;;5041554;28;20059;-63
2023/12/19 00:48:10;;;;;;;119.05;40.22;;;;;;;;;;5024117;28;20049;-63
2023/12/19 00:50:36;;;;;;;112.05;39.33;;;;;;;;;;5028358;28;20518;-63
2023/12/19 00:53:02;;;;;;;116.20;39.47;;;;;;;;;;5040076;28;20136;-62
2023/12/19 00:55:28;;;;;;;112.18;39.08;;;;;;;;;;5029243;28;20045;-63
2023/12/19 00:57:55;;;;;;;119.10;41.10;;;;;;;;;;5029368;28;20500;-63
2023/12/19 01:00:21;;;;;;;129.25;41.92;;;;;;;;;;5025543;28;20048;-63
2023/12/19 01:02:47;;;;;;;110.53;40.08;;;;;;;;;;5019241;28;20524;-63
2023/12/19 01:05:13;;;;;;;119.32;40.80;;;;;;;;;;5041839;28;20106;-63
2023/12/19 01:07:39;;;;;;;107.97;39.10;;;;;;;;;;5022627;28;20480;-63
2023/12/19 01:10:06;;;;;;;117.03;40.08;;;;;;;;;;5041735;28;20065;-63
2023/12/19 01:12:32;;;;;;;111.18;38.03;;;;;;;;;;5026037;28;20052;-63
2023/12/19 01:14:59;;;;;;;113.28;39.70;;;;;;;;;;5041246;28;20409;-62
2023/12/19 01:17:25;;;;;;;103.45;37.83;;;;;;;;;;5041135;28;20542;-62
2023/12/19 01:19:51;;;;;;;109.22;35.85;;;;;;;;;;5041115;28;20037;-62
2023/12/19 01:22:17;;;;;;;99.88;35.05;;;;;;;;;;5019821;28;20128;-62
2023/12/19 01:24:43;;;;;;;88.85;34.35;;;;;;;;;;5019904;28;20094;-62
2023/12/19 01:27:10;;;;;;;79.45;31.55;;;;;;;;;;5021550;28;20037;-62
2023/12/19 01:29:36;;;;;;;89.10;33.53;;;;;;;;;;5015716;28;20053;-63
2023/12/19 01:32:02;;;;;;;79.38;31.52;;;;;;;;;;5022087;28;20046;-62
2023/12/19 01:34:28;;;;;;;74.05;29.98;;;;;;;;;;5020246;28;20056;-62
2023/12/19 01:36:55;;;;;;;78.97;30.38;;;;;;;;;;5035737;28;20069;-62
2023/12/19 01:39:21;;;;;;;77.93;29.75;;;;;;;;;;5018518;28;20056;-62
2023/12/19 01:41:48;;;;;;;76.07;28.10;;;;;;;;;;5016391;28;20392;-62
2023/12/19 01:44:18;;;;;;;69.00;28.08;;;;;;;;;;5018948;28;20710;-62
2023/12/19 01:46:44;;;;;;;71.45;28.67;;;;;;;;;;5020201;28;20116;-62
2023/12/19 01:49:10;;;;;;;71.40;27.70;;;;;;;;;;5019792;28;20593;-62
2023/12/19 01:51:37;;;;;;;64.30;27.83;;;;;;;;;;5040202;28;20041;-62
2023/12/19 01:54:05;;;;;;;60.60;25.40;;;;;;;;;;5023951;28;20441;-62
2023/12/19 01:56:32;;;;;;;58.30;25.40;;;;;;;;;;5021711;28;20472;-62
2023/12/19 01:59:00;;;;;;;66.30;27.02;;;;;;;;;;5017983;28;20143;-62
2023/12/19 02:01:26;;;;;;;65.95;26.02;;;;;;;;;;5019937;28;20064;-62
2023/12/19 02:03:52;;;;;;;60.15;25.95;;;;;;;;;;5019650;28;20497;-62
2023/12/19 02:06:19;;;;;;;68.38;27.33;;;;;;;;;;5020201;28;20564;-62
2023/12/19 02:08:45;;;;;;;74.07;27.45;;;;;;;;;;5018471;28;20088;-62
2023/12/19 02:11:12;;;;;;;68.47;27.33;;;;;;;;;;5017472;28;20050;-62
2023/12/19 02:13:38;;;;;;;78.05;29.02;;;;;;;;;;5019795;28;20480;-62
2023/12/19 02:16:05;;;;;;;76.20;28.13;;;;;;;;;;5018417;28;20496;-63
2023/12/19 02:18:31;;;;;;;59.25;26.27;;;;;;;;;;5018337;28;20056;-62
2023/12/19 02:20:57;;;;;;;71.40;27.70;;;;;;;;;;5020049;28;20049;-62
2023/12/19 02:23:23;;;;;;;79.47;27.67;;;;;;;;;;5021329;28;20053;-62
2023/12/19 02:25:51;;;;;;;73.13;26.42;;;;;;;;;;5034718;28;20041;-62
2023/12/19 02:28:17;;;;;;;69.32;27.20;;;;;;;;;;5019832;28;20759;-62
2023/12/19 02:30:44;;;;;;;65.32;24.50;;;;;;;;;;5022643;28;20119;-62
2023/12/19 02:33:10;;;;;;;61.45;25.25;;;;;;;;;;5021337;28;20480;-62
2023/12/19 02:35:37;;;;;;;62.20;25.40;;;;;;;;;;5019124;28;20468;-62
2023/12/19 02:38:03;;;;;;;67.47;27.08;;;;;;;;;;5018459;28;20164;-62
2023/12/19 02:40:29;;;;;;;62.22;25.65;;;;;;;;;;5018748;28;20044;-62
2023/12/19 02:42:56;;;;;;;73.68;28.17;;;;;;;;;;5019815;28;20045;-62
2023/12/19 02:45:22;;;;;;;64.43;26.92;;;;;;;;;;5021293;28;20045;-62
2023/12/19 02:47:48;;;;;;;69.72;27.80;;;;;;;;;;5014482;28;20128;-62
2023/12/19 02:50:14;;;;;;;70.10;28.23;;;;;;;;;;5018562;28;20049;-62
2023/12/19 02:52:40;;;;;;;68.30;28.90;;;;;;;;;;5020538;28;20211;-62
2023/12/19 02:55:07;;;;;;;64.63;26.42;;;;;;;;;;5022300;28;20053;-62
2023/12/19 02:57:33;;;;;;;70.05;27.77;;;;;;;;;;5019277;28;20037;-62
2023/12/19 02:59:59;;;;;;;64.63;26.40;;;;;;;;;;5018186;28;20033;-62
2023/12/19 03:02:25;;;;;;;76.07;28.80;;;;;;;;;;5021419;28;20120;-62
2023/12/19 03:04:51;;;;;;;70.40;28.13;;;;;;;;;;5018233;28;20045;-62
2023/12/19 03:07:18;;;;;;;75.88;26.85;;;;;;;;;;5017432;28;21184;-62
2023/12/19 03:09:44;;;;;;;88.85;30.02;;;;;;;;;;5019315;28;20354;-62
2023/12/19 03:12:10;;;;;;;77.18;28.02;;;;;;;;;;5021323;28;20061;-62
2023/12/19 03:14:37;;;;;;;70.32;27.75;;;;;;;;;;5018128;28;20080;-62
2023/12/19 03:17:03;;;;;;;72.43;28.40;;;;;;;;;;5019490;28;20033;-62
2023/12/19 03:19:30;;;;;;;66.55;25.25;;;;;;;;;;5019021;28;20041;-62
2023/12/19 03:21:57;;;;;;;68.68;25.85;;;;;;;;;;5035906;28;20053;-62
2023/12/19 03:24:23;;;;;;;72.57;27.25;;;;;;;;;;5020542;28;20079;-62
2023/12/19 03:26:49;;;;;;;74.68;26.88;;;;;;;;;;5022017;28;20123;-62
2023/12/19 03:29:16;;;;;;;62.17;25.02;;;;;;;;;;5020991;28;20191;-62
2023/12/19 03:31:42;;;;;;;66.30;25.13;;;;;;;;;;5037405;28;20052;-62
2023/12/19 03:34:09;;;;;;;71.25;27.10;;;;;;;;;;5037938;28;20567;-62
2023/12/19 03:36:35;;;;;;;74.50;26.40;;;;;;;;;;5039882;28;20048;-62
2023/12/19 03:39:01;;;;;;;62.28;24.50;;;;;;;;;;5038847;28;20048;-62
2023/12/19 03:41:27;;;;;;;64.85;25.35;;;;;;;;;;5042080;28;20734;-62
2023/12/19 03:43:53;;;;;;;62.10;24.65;;;;;;;;;;5022390;28;20045;-62
2023/12/19 03:46:20;;;;;;;66.30;25.45;;;;;;;;;;5025605;28;20097;-62
2023/12/19 03:48:46;;;;;;;70.35;25.98;;;;;;;;;;5044594;28;20045;-62
2023/12/19 03:51:12;;;;;;;67.10;26.08;;;;;;;;;;5027211;28;20045;-62
2023/12/19 03:53:38;;;;;;;68.93;26.98;;;;;;;;;;5044641;28;20400;-62
2023/12/19 03:56:05;;;;;;;67.22;24.98;;;;;;;;;;5023326;28;20079;-62
2023/12/19 03:58:31;;;;;;;70.75;26.55;;;;;;;;;;5045520;28;20036;-62
2023/12/19 04:00:58;;;;;;;69.32;25.90;;;;;;;;;;5039241;28;20040;-62
2023/12/19 04:03:24;;;;;;;64.10;24.20;;;;;;;;;;5016587;28;20499;-62
2023/12/19 04:05:50;;;;;;;65.45;25.08;;;;;;;;;;5039840;28;20144;-62
2023/12/19 04:08:16;;;;;;;60.70;22.85;;;;;;;;;;5040275;28;20164;-62
2023/12/19 04:10:43;;;;;;;59.38;22.98;;;;;;;;;;5038229;28;20040;-62
2023/12/19 04:13:09;;;;;;;55.72;21.98;;;;;;;;;;5021373;28;20465;-62
2023/12/19 04:15:35;;;;;;;58.30;22.83;;;;;;;;;;5025768;28;20341;-62
2023/12/19 04:18:01;;;;;;;61.17;22.90;;;;;;;;;;5019519;28;20087;-62
2023/12/19 04:20:27;;;;;;;54.15;22.75;;;;;;;;;;5020838;28;20542;-62
2023/12/19 04:22:53;;;;;;;59.40;23.20;;;;;;;;;;5004927;28;20068;-62
2023/12/19 04:25:20;;;;;;;54.10;22.20;;;;;;;;;;5019810;28;20071;-62
2023/12/19 04:27:46;;;;;;;63.55;22.98;;;;;;;;;;5023574;28;20044;-62
2023/12/19 04:30:12;;;;;;;63.75;23.38;;;;;;;;;;5039729;28;20373;-62
2023/12/19 04:32:38;;;;;;;60.75;22.65;;;;;;;;;;5038530;28;20646;-62
2023/12/19 04:35:05;;;;;;;56.88;21.33;;;;;;;;;;5040842;28;20048;-62
2023/12/19 04:37:31;;;;;;;54.08;21.70;;;;;;;;;;5041121;28;20037;-62
2023/12/19 04:39:57;;;;;;;57.38;21.38;;;;;;;;;;5023619;28;20519;-62
2023/12/19 04:42:24;;;;;;;55.58;20.55;;;;;;;;;;5042585;28;20059;-62
2023/12/19 04:44:50;;;;;;;49.30;20.45;;;;;;;;;;5039597;28;20103;-62
2023/12/19 04:47:16;;;;;;;54.47;20.02;;;;;;;;;;5041620;28;20044;-62
2023/12/19 04:49:43;;;;;;;57.35;20.63;;;;;;;;;;5042358;28;20045;-62
2023/12/19 04:52:09;;;;;;;52.80;20.00;;;;;;;;;;5044897;28;20036;-62
2023/12/19 04:54:35;;;;;;;50.22;19.63;;;;;;;;;;5042202;28;20197;-63
2023/12/19 04:57:02;;;;;;;46.45;20.00;;;;;;;;;;5043347;28;20525;-62
2023/12/19 04:59:28;;;;;;;53.15;19.73;;;;;;;;;;5041196;28;20440;-62
2023/12/19 05:01:54;;;;;;;57.15;20.27;;;;;;;;;;5023644;28;20448;-62
2023/12/19 05:04:20;;;;;;;50.38;19.70;;;;;;;;;;5024383;28;20123;-62
2023/12/19 05:06:46;;;;;;;54.95;18.30;;;;;;;;;;5024309;28;20045;-62
2023/12/19 05:09:13;;;;;;;54.88;20.35;;;;;;;;;;5041784;28;20044;-62
2023/12/19 05:11:42;;;;;;;50.17;18.02;;;;;;;;;;5023114;28;20542;-63
2023/12/19 05:14:08;;;;;;;42.13;17.25;;;;;;;;;;5022808;28;20396;-62
2023/12/19 05:16:34;;;;;;;52.33;18.48;;;;;;;;;;5041193;28;20060;-62
2023/12/19 05:19:01;;;;;;;43.10;17.73;;;;;;;;;;5023236;28;20074;-63
2023/12/19 05:21:27;;;;;;;48.78;18.27;;;;;;;;;;5024651;28;20049;-62
2023/12/19 05:23:53;;;;;;;49.92;17.85;;;;;;;;;;5006205;28;20437;-62
2023/12/19 05:26:19;;;;;;;44.17;17.00;;;;;;;;;;5024689;28;20048;-62
2023/12/19 05:28:45;;;;;;;40.08;16.67;;;;;;;;;;5038924;28;20048;-62
2023/12/19 05:31:12;;;;;;;41.17;16.25;;;;;;;;;;5038802;28;20651;-62
2023/12/19 05:33:39;;;;;;;44.10;16.55;;;;;;;;;;5039958;28;20072;-62
2023/12/19 05:36:05;;;;;;;41.72;16.95;;;;;;;;;;5044549;28;20044;-62
2023/12/19 05:38:33;;;;;;;39.90;15.80;;;;;;;;;;5023429;28;20496;-62
2023/12/19 05:40:59;;;;;;;44.30;15.95;;;;;;;;;;5038604;28;20057;-62
2023/12/19 05:43:25;;;;;;;37.88;15.80;;;;;;;;;;5022650;28;20127;-62
2023/12/19 05:45:52;;;;;;;46.78;15.77;;;;;;;;;;5040916;28;20037;-62
2023/12/19 05:48:20;;;;;;;41.17;15.98;;;;;;;;;;5040648;28;20048;-62
2023/12/19 05:50:47;;;;;;;41.13;16.75;;;;;;;;;;5045468;28;20041;-63
2023/12/19 05:53:13;;;;;;;45.28;17.20;;;;;;;;;;5047399;28;20063;-62
2023/12/19 05:55:39;;;;;;;42.53;15.98;;;;;;;;;;5046138;28;20041;-63
2023/12/19 05:58:05;;;;;;;47.30;17.20;;;;;;;;;;5045062;28;20076;-63
2023/12/19 06:00:31;;;;;;;41.90;15.60;;;;;;;;;;5027529;28;20043;-63
2023/12/19 06:02:57;;;;;;;39.22;15.90;;;;;;;;;;5043266;28;20414;-63
2023/12/19 06:05:24;;;;;;;40.88;15.73;;;;;;;;;;5028578;28;20093;-63
2023/12/19 06:07:50;;;;;;;37.67;16.38;;;;;;;;;;5046171;28;20464;-64
2023/12/19 06:10:16;;;;;;;42.08;16.35;;;;;;;;;;5028050;28;20049;-63
2023/12/19 06:12:42;;;;;;;47.03;16.95;;;;;;;;;;5044849;28;20449;-63
2023/12/19 06:15:11;;;;;;;43.55;17.58;;;;;;;;;;5046430;28;20488;-63
2023/12/19 06:17:41;;;;;;;45.22;18.35;;;;;;;;;;5045352;28;20040;-63
2023/12/19 06:20:08;;;;;;;50.92;18.58;;;;;;;;;;5044553;28;20040;-63
2023/12/19 06:22:34;;;;;;;48.20;17.58;;;;;;;;;;5021177;28;20330;-63
2023/12/19 06:25:00;;;;;;;53.25;19.27;;;;;;;;;;5028311;28;20060;-63
2023/12/19 06:27:27;;;;;;;60.28;20.85;;;;;;;;;;5044575;28;20040;-62
2023/12/19 06:29:55;;;;;;;49.60;19.73;;;;;;;;;;5022702;28;20053;-62
2023/12/19 06:32:21;;;;;;;57.83;20.23;;;;;;;;;;5025703;28;20485;-62
2023/12/19 06:34:47;;;;;;;67.38;22.83;;;;;;;;;;5044265;28;20045;-63
2023/12/19 06:37:14;;;;;;;61.28;21.13;;;;;;;;;;5044203;28;20048;-62
2023/12/19 06:39:40;;;;;;;61.38;22.70;;;;;;;;;;5027335;28;20071;-63
2023/12/19 06:42:06;;;;;;;64.55;22.27;;;;;;;;;;5046784;28;20037;-63
2023/12/19 06:44:32;;;;;;;68.32;23.95;;;;;;;;;;5044338;28;21945;-63
2023/12/19 06:46:59;;;;;;;66.15;22.58;;;;;;;;;;5043857;28;20090;-63
2023/12/19 06:49:25;;;;;;;61.58;22.30;;;;;;;;;;5040808;28;20037;-63
2023/12/19 06:51:51;;;;;;;63.38;22.33;;;;;;;;;;5044975;28;20467;-63
2023/12/19 06:54:17;;;;;;;57.38;23.27;;;;;;;;;;5044725;28;20056;-63
2023/12/19 06:56:43;;;;;;;59.00;22.85;;;;;;;;;;5046170;28;20044;-63
2023/12/19 06:59:10;;;;;;;59.55;24.88;;;;;;;;;;5042897;28;20045;-63
2023/12/19 07:01:36;;;;;;;57.97;24.13;;;;;;;;;;5047135;28;20033;-63
2023/12/19 07:04:03;;;;;;;63.28;24.42;;;;;;;;;;5048082;28;20382;-63
2023/12/19 07:06:30;;;;;;;59.17;24.58;;;;;;;;;;5027631;28;20095;-63
2023/12/19 07:08:56;;;;;;;67.25;24.45;;;;;;;;;;5045367;28;20055;-63
2023/12/19 07:11:22;;;;;;;52.70;23.35;;;;;;;;;;5045057;28;20041;-63
2023/12/19 07:13:49;;;;;;;61.17;24.80;;;;;;;;;;5045032;28;20507;-63
2023/12/19 07:16:17;;;;;;;88.05;26.42;;;;;;;;;;5044215;28;20396;-63
2023/12/19 07:18:44;;;;;;;59.38;25.60;;;;;;;;;;5027357;28;20115;-63
2023/12/19 07:21:21;;;;;;;66.97;26.05;;;;;;;;;;5024736;28;20437;-63
2023/12/19 07:23:48;;;;;;;60.92;25.20;;;;;;;;;;5009162;28;20098;-63
2023/12/19 07:26:20;;;;;;;64.15;24.33;;;;;;;;;;5041386;28;20714;-63
2023/12/19 07:28:47;;;;;;;50.47;22.52;;;;;;;;;;5027324;28;20056;-63
2023/12/19 07:31:21;;;;;;;58.90;23.17;;;;;;;;;;5026224;28;20036;-63
2023/12/19 07:33:47;;;;;;;53.28;22.40;;;;;;;;;;5045253;28;20094;-63
2023/12/19 07:36:13;;;;;;;54.50;22.05;;;;;;;;;;5042778;28;20040;-63
2023/12/19 07:38:40;;;;;;;63.10;23.20;;;;;;;;;;5045179;28;20048;-63
2023/12/19 07:41:06;;;;;;;61.83;23.92;;;;;;;;;;5045532;28;20094;-63
2023/12/19 07:43:32;;;;;;;64.63;23.05;;;;;;;;;;5027278;28;20142;-63
2023/12/19 07:45:58;;;;;;;54.17;21.88;;;;;;;;;;5043173;28;20041;-63
2023/12/19 07:48:25;;;;;;;60.35;22.25;;;;;;;;;;5044367;28;20037;-63
2023/12/19 07:50:51;;;;;;;50.30;20.63;;;;;;;;;;5020888;28;20495;-63
2023/12/19 07:53:17;;;;;;;61.08;22.15;;;;;;;;;;5025559;28;20384;-68
2023/12/19 07:55:43;;;;;;;55.70;22.75;;;;;;;;;;5024960;28;20132;-64
2023/12/19 07:58:10;;;;;;;57.35;24.30;;;;;;;;;;5043829;28;20142;-63
2023/12/19 08:00:37;;;;;;;64.57;23.52;;;;;;;;;;5041400;28;20448;-63
2023/12/19 08:03:03;;;;;;;68.30;24.05;;;;;;;;;;5038276;28;20081;-63
2023/12/19 08:05:30;;;;;;;66.72;23.83;;;;;;;;;;5040006;28;20041;-63
2023/12/19 08:07:56;;;;;;;67.35;23.60;;;;;;;;;;5043537;28;20029;-63
2023/12/19 08:10:23;;;;;;;63.38;22.17;;;;;;;;;;5042586;28;20056;-63
2023/12/19 08:12:49;;;;;;;63.92;22.73;;;;;;;;;;5045605;28;20064;-63
2023/12/19 08:15:15;;;;;;;75.32;23.35;;;;;;;;;;5029597;28;20122;-63
2023/12/19 08:17:41;;;;;;;65.75;22.80;;;;;;;;;;5046176;28;20114;-63
2023/12/19 08:20:10;;;;;;;73.20;23.55;;;;;;;;;;5029699;28;20041;-63
2023/12/19 08:22:36;;;;;;;72.15;22.98;;;;;;;;;;5049903;28;20403;-63
2023/12/19 08:25:03;;;;;;;61.50;23.17;;;;;;;;;;5028745;28;20045;-63
2023/12/19 08:27:34;;;;;;;78.15;25.40;;;;;;;;;;5030670;28;20056;-63
2023/12/19 08:30:03;;;;;;;73.70;24.27;;;;;;;;;;5046082;28;20466;-63
2023/12/19 08:32:29;;;;;;;82.57;25.60;;;;;;;;;;5030529;28;20630;-63
2023/12/19 08:34:58;;;;;;;71.13;25.23;;;;;;;;;;5042865;28;20128;-63
2023/12/19 08:37:25;;;;;;;80.28;25.40;;;;;;;;;;5048271;28;20116;-63
2023/12/19 08:39:56;;;;;;;78.10;27.58;;;;;;;;;;5043547;28;20143;-63
2023/12/19 08:42:22;;;;;;;71.28;25.33;;;;;;;;;;5026266;28;20067;-63
2023/12/19 08:44:50;;;;;;;79.22;25.73;;;;;;;;;;5024721;28;20504;-63
2023/12/19 08:47:17;;;;;;;87.22;28.45;;;;;;;;;;5046275;28;20041;-63
2023/12/19 08:49:43;;;;;;;78.03;26.63;;;;;;;;;;5046741;28;20070;-63
2023/12/19 08:52:11;;;;;;;85.53;27.27;;;;;;;;;;5025783;28;20049;-63
2023/12/19 08:54:38;;;;;;;98.32;28.48;;;;;;;;;;5044077;28;20116;-63
2023/12/19 08:57:05;;;;;;;84.15;27.17;;;;;;;;;;5046107;28;20060;-63
2023/12/19 08:59:31;;;;;;;90.20;28.65;;;;;;;;;;5010427;28;20049;-63
2023/12/19 09:01:58;;;;;;;93.93;28.52;;;;;;;;;;5044169;28;20060;-63
2023/12/19 09:04:24;;;;;;;95.93;29.88;;;;;;;;;;5044118;28;20045;-63
2023/12/19 09:06:50;;;;;;;80.20;26.45;;;;;;;;;;5045213;28;20074;-63
2023/12/19 09:09:17;;;;;;;96.32;28.73;;;;;;;;;;5027575;28;20056;-63
2023/12/19 09:11:43;;;;;;;89.38;26.60;;;;;;;;;;5026842;28;20571;-63
2023/12/19 09:14:11;;;;;;;82.38;24.98;;;;;;;;;;5045011;28;20326;-63
2023/12/19 09:16:37;;;;;;;66.50;23.08;;;;;;;;;;5027799;28;20048;-63
2023/12/19 09:19:04;;;;;;;88.93;25.40;;;;;;;;;;5044789;28;20520;-63
2023/12/19 09:21:31;;;;;;;69.47;22.13;;;;;;;;;;5043989;28;20079;-63
2023/12/19 09:23:57;;;;;;;69.13;22.73;;;;;;;;;;5042540;28;20045;-63
2023/12/19 09:26:23;;;;;;;61.60;21.70;;;;;;;;;;5026348;28;20545;-63
2023/12/19 09:28:49;;;;;;;68.93;22.50;;;;;;;;;;5043649;28;20037;-63
2023/12/19 09:31:16;;;;;;;63.65;22.02;;;;;;;;;;5046461;28;20148;-63
2023/12/19 09:33:42;;;;;;;66.22;20.75;;;;;;;;;;5044528;28;20193;-63
2023/12/19 09:36:09;;;;;;;56.85;20.60;;;;;;;;;;5044317;28;20369;-63
2023/12/19 09:38:36;;;;;;;79.72;23.73;;;;;;;;;;5044313;28;20041;-63
2023/12/19 09:41:02;;;;;;;68.88;20.75;;;;;;;;;;5025488;28;20570;-63
2023/12/19 09:43:32;;;;;;;82.75;23.33;;;;;;;;;;5046846;28;20041;-63
2023/12/19 09:46:02;;;;;;;86.07;22.30;;;;;;;;;;5028292;28;20653;-63
2023/12/19 09:48:32;;;;;;;84.68;21.70;;;;;;;;;;5045208;28;20033;-63
2023/12/19 09:51:01;;;;;;;89.15;22.70;;;;;;;;;;5045948;28;20087;-63
2023/12/19 09:53:29;;;;;;;91.82;22.50;;;;;;;;;;5046130;28;20124;-63
2023/12/19 09:55:55;;;;;;;72.60;20.33;;;;;;;;;;5029291;28;20400;-63
2023/12/19 09:58:23;;;;;;;72.10;20.15;;;;;;;;;;5046979;28;20457;-63
2023/12/19 10:00:51;;;;;;;85.63;19.77;;;;;;;;;;5046017;28;20479;-63
2023/12/19 10:03:17;;;;;;;76.15;20.33;;;;;;;;;;5028733;28;20048;-63
2023/12/19 10:05:44;;;;;;;81.30;20.58;;;;;;;;;;5029390;28;20106;-63
2023/12/19 10:08:10;;;;;;;85.10;20.33;;;;;;;;;;5026774;28;20057;-63
2023/12/19 10:10:51;;;;;;;82.47;18.38;;;;;;;;;;5028766;28;20033;-63
2023/12/19 10:13:33;;;;;;;71.32;17.52;;;;;;;;;;5045715;28;20045;-63
2023/12/19 10:16:04;;;;;;;74.03;18.13;;;;;;;;;;5044859;28;20049;-63
2023/12/19 10:18:30;;;;;;;73.32;17.27;;;;;;;;;;5044900;28;20048;-63
2023/12/19 10:21:04;;;;;;;77.10;17.35;;;;;;;;;;5026742;28;20052;-63
2023/12/19 10:23:32;;;;;;;81.35;17.50;;;;;;;;;;5045184;28;20179;-63
2023/12/19 10:25:58;;;;;;;70.68;17.08;;;;;;;;;;5046201;28;20397;-63
2023/12/19 10:28:24;;;;;;;71.18;16.23;;;;;;;;;;5045455;28;20084;-63
2023/12/19 10:30:51;;;;;;;83.97;18.10;;;;;;;;;;5044558;28;20041;-63
2023/12/19 10:33:17;;;;;;;94.35;18.10;;;;;;;;;;5026955;28;20044;-63
2023/12/19 10:35:44;;;;;;;80.50;17.88;;;;;;;;;;5046586;28;20045;-63
2023/12/19 10:38:11;;;;;;;84.93;17.88;;;;;;;;;;5045560;28;20051;-63
2023/12/19 10:40:37;;;;;;;77.78;16.77;;;;;;;;;;5026218;28;20059;-63
2023/12/19 10:43:04;;;;;;;69.13;16.00;;;;;;;;;;5046045;28;20114;-63
2023/12/19 10:45:30;;;;;;;66.00;15.68;;;;;;;;;;5045986;28;20397;-63
2023/12/19 10:47:57;;;;;;;64.20;15.85;;;;;;;;;;5044188;28;20056;-63
2023/12/19 10:50:24;;;;;;;76.97;17.60;;;;;;;;;;5045045;28;20048;-63
2023/12/19 10:52:51;;;;;;;62.88;15.85;;;;;;;;;;5045537;28;20083;-63
2023/12/19 10:55:20;;;;;;;72.57;15.95;;;;;;;;;;5045021;28;20049;-63
2023/12/19 10:57:48;;;;;;;53.75;15.35;;;;;;;;;;5044596;28;20040;-63
2023/12/19 11:00:21;;;;;;;56.95;16.27;;;;;;;;;;5030755;28;20493;-63
2023/12/19 11:02:50;;;;;;;51.17;15.05;;;;;;;;;;5025254;28;20496;-63
2023/12/19 11:05:24;;;;;;;56.35;15.73;;;;;;;;;;5040959;28;20431;-62
2023/12/19 11:07:50;;;;;;;;;;;;;;;;;;5024594;28;20052;-63
2023/12/19 11:10:18;;;;;;;50.80;14.93;;;;;;;;;;5026299;28;19925;-63
2023/12/19 11:12:44;;;;;;;41.10;14.80;;;;;;;;;;5026429;28;20425;-63
2023/12/19 11:15:12;;;;;;;52.65;15.50;;;;;;;;;;5025102;28;20068;-63
2023/12/19 11:17:42;;;;;;;46.83;15.32;;;;;;;;;;5023397;28;20374;-63
2023/12/19 11:20:14;;;;;;;38.33;13.18;;;;;;;;;;5043711;28;20047;-63
2023/12/19 11:22:45;;;;;;;47.25;14.95;;;;;;;;;;5026885;28;20048;-63
2023/12/19 11:25:21;;;;;;;38.33;14.10;;;;;;;;;;5025685;28;20037;-63
2023/12/19 11:27:52;;;;;;;49.38;15.23;;;;;;;;;;5025980;28;20501;-63
2023/12/19 11:30:32;;;;;;;43.38;14.10;;;;;;;;;;5026816;28;20626;-63
2023/12/19 11:32:58;;;;;;;45.47;15.23;;;;;;;;;;5008797;28;20063;-63
2023/12/19 11:35:29;;;;;;;60.33;16.42;;;;;;;;;;5025689;28;20091;-62
2023/12/19 11:38:14;;;;;;;46.67;15.65;;;;;;;;;;5028986;28;20108;-62
2023/12/19 11:40:47;;;;;;;35.50;13.32;;;;;;;;;;5007628;28;20496;-62
2023/12/19 11:43:29;;;;;;;42.40;13.50;;;;;;;;;;5025696;28;20691;-63
2023/12/19 11:45:57;;;;;;;38.45;13.10;;;;;;;;;;5030360;28;20079;-62
2023/12/19 11:48:35;;;;;;;33.03;12.65;;;;;;;;;;5048367;28;20045;-62
2023/12/19 11:51:01;;;;;;;21.30;9.32;;;;;;;;;;5046458;28;20048;-62
2023/12/19 11:53:28;;;;;;;19.67;8.77;;;;;;;;;;5046970;28;20367;-63
2023/12/19 11:56:13;;;;;;;17.58;8.02;;;;;;;;;;5029895;28;20049;-62
2023/12/19 11:58:43;;;;;;;14.02;7.57;;;;;;;;;;5050392;28;20106;-62
2023/12/19 12:01:09;;;;;;;17.33;8.00;;;;;;;;;;5047669;28;20127;-63
2023/12/19 12:03:37;;;;;;;18.58;9.13;;;;;;;;;;5048558;28;20045;-63
2023/12/19 12:06:04;;;;;;;18.40;7.60;;;;;;;;;;5029590;28;20123;-63
2023/12/19 12:08:30;;;;;;;13.57;6.30;;;;;;;;;;5029838;28;20041;-63
2023/12/19 12:10:59;;;;;;;16.17;7.18;;;;;;;;;;5048152;28;20488;-63
2023/12/19 12:13:25;;;;;;;13.60;6.97;;;;;;;;;;5047768;28;20090;-63
2023/12/19 12:15:53;;;;;;;13.35;6.85;;;;;;;;;;5030378;28;20041;-63
2023/12/19 12:18:20;;;;;;;14.65;6.13;;;;;;;;;;5048212;28;20029;-63
2023/12/19 12:20:46;;;;;;;11.80;6.22;;;;;;;;;;5049258;28;20045;-63
2023/12/19 12:23:12;;;;;;;10.73;4.97;;;;;;;;;;5047332;28;20064;-63
2023/12/19 12:25:38;;;;;;;9.93;4.30;;;;;;;;;;5030416;28;20108;-63
2023/12/19 12:28:08;;;;;;;10.50;3.65;;;;;;;;;;5030334;28;20095;-63
2023/12/19 12:30:35;;;;;;;7.80;3.38;;;;;;;;;;5026929;28;20049;-63
2023/12/19 12:33:03;;;;;;;7.45;2.97;;;;;;;;;;5045249;28;20377;-63
2023/12/19 12:35:34;;;;;;;10.32;3.33;;;;;;;;;;5045692;28;20448;-63
2023/12/19 12:38:01;;;;;;;7.55;3.10;;;;;;;;;;5025752;28;20126;-63
2023/12/19 12:40:28;;;;;;;9.52;2.90;;;;;;;;;;5046614;28;20052;-63
2023/12/19 12:43:13;;;;;;;10.23;3.17;;;;;;;;;;5027828;28;20044;-63
2023/12/19 12:45:39;;;;;;;7.57;2.95;;;;;;;;;;5029229;28;20052;-63
2023/12/19 12:48:13;;;;;;;8.65;2.88;;;;;;;;;;5025627;28;20124;-63
2023/12/19 12:50:39;;;;;;;7.97;2.80;;;;;;;;;;5026285;28;20535;-63
2023/12/19 12:53:05;;;;;;;8.05;4.25;;;;;;;;;;5023492;28;20112;-63
2023/12/19 12:55:31;;;;;;;7.88;3.35;;;;;;;;;;5043934;28;20457;-63
2023/12/19 12:58:02;;;;;;;8.43;3.33;;;;;;;;;;5026471;28;20094;-63
2023/12/19 13:00:29;;;;;;;8.98;2.95;;;;;;;;;;5045826;28;20443;-63
2023/12/19 13:02:56;;;;;;;5.65;2.28;;;;;;;;;;5026736;28;20044;-63
2023/12/19 13:05:23;;;;;;;6.65;2.60;;;;;;;;;;5025089;28;20045;-63
2023/12/19 13:07:50;;;;;;;5.32;2.15;;;;;;;;;;5044433;28;20112;-63
2023/12/19 13:10:17;;;;;;;6.13;2.75;;;;;;;;;;5026244;28;20047;-63
2023/12/19 13:12:43;;;;;;;8.68;2.50;;;;;;;;;;5026468;28;20064;-63
2023/12/19 13:15:11;;;;;;;3.45;1.73;;;;;;;;;;5042896;28;20045;-63
2023/12/19 13:17:37;;;;;;;8.18;2.33;;;;;;;;;;5044284;28;20040;-63
2023/12/19 13:20:04;;;;;;;9.95;3.40;;;;;;;;;;5026244;28;20055;-63
2023/12/19 13:22:30;;;;;;;5.45;1.80;;;;;;;;;;5021426;28;20104;-63
2023/12/19 13:24:56;;;;;;;5.13;1.88;;;;;;;;;;5021992;28;21275;-63
2023/12/19 13:27:22;;;;;;;6.55;2.22;;;;;;;;;;5023837;28;20053;-63
2023/12/19 13:29:49;;;;;;;6.15;2.00;;;;;;;;;;5023989;28;20052;-63
2023/12/19 13:32:15;;;;;;;5.70;2.05;;;;;;;;;;5024150;28;20045;-63
2023/12/19 13:34:41;;;;;;;6.72;2.05;;;;;;;;;;5024270;28;20044;-63
2023/12/19 13:37:07;;;;;;;7.20;2.15;;;;;;;;;;5026889;28;20041;-63
2023/12/19 13:39:35;;;;;;;5.38;2.17;;;;;;;;;;5021944;28;20677;-63
2023/12/19 13:42:03;;;;;;;6.43;2.10;;;;;;;;;;5024293;28;20077;-62
2023/12/19 13:44:29;;;;;;;8.27;2.40;;;;;;;;;;5023250;28;20127;-63
2023/12/19 13:46:55;;;;;;;9.68;3.28;;;;;;;;;;5024273;28;20045;-63
2023/12/19 13:49:22;;;;;;;8.85;2.60;;;;;;;;;;5003117;28;20048;-63
2023/12/19 13:51:48;;;;;;;6.50;2.90;;;;;;;;;;5025121;28;20125;-63
2023/12/19 13:54:14;;;;;;;12.60;3.53;;;;;;;;;;5023985;28;20436;-63
2023/12/19 13:56:40;;;;;;;10.32;3.45;;;;;;;;;;5025271;28;20400;-63
2023/12/19 13:59:07;;;;;;;8.82;4.18;;;;;;;;;;5023790;28;20401;-63
2023/12/19 14:01:33;;;;;;;11.00;4.43;;;;;;;;;;5022235;28;20554;-63
2023/12/19 14:04:01;;;;;;;11.13;4.45;;;;;;;;;;5022765;28;20041;-63
2023/12/19 14:06:28;;;;;;;12.52;4.05;;;;;;;;;;5022577;28;20053;-63
2023/12/19 14:08:54;;;;;;;10.85;4.25;;;;;;;;;;5021662;28;20132;-63
2023/12/19 14:11:20;;;;;;;17.77;4.75;;;;;;;;;;5039003;28;20041;-63
2023/12/19 14:13:46;;;;;;;18.40;5.22;;;;;;;;;;5024386;28;20060;-63
2023/12/19 14:16:14;;;;;;;14.38;5.18;;;;;;;;;;5021994;28;20063;-63
2023/12/19 14:18:40;;;;;;;12.98;5.30;;;;;;;;;;5023642;28;20172;-63